Terminal Aerodrome Forecast
Issued by NWS

Home | Current Version | Previous Version | Text Only | Print | Product List | Glossary Off
Versions: 1 2 3 4 5 6 7 8 9 10 11 12 13 14 15 16 17 18 19 20 21 22 23 24 25 26 27 28 29

000
FTUS43 KGRB 232300
TAFAUW
TAF
KAUW 232331Z 2400/2424 18004KT 4SM BR OVC004
     FM240300 24003KT 2SM BR OVC003
     FM240600 VRB03KT 3/4SM BR SCT003
     FM241300 19003KT 1SM BR BKN003
     FM241500 19004KT 3SM BR SCT005 BKN012
     FM241800 20004KT P6SM SCT020=

USA.gov is the U.S. government's official web portal to all federal, state and local government web resources and services.